Time;durP1;ratioP1;P1;durP2;ratioP2;P2;SDS_P1;SDS_P2;PMS_P1;PMS_P2;Temp;Humidity;BMP_temperature;BMP_pressure;BME280_temperature;BME280_humidity;BME280_pressure;Samples;Min_cycle;Max_cycle;Signal;HPM_P1;HPM_P2
2021/04/05 00:01:40;;;;;;;14.93;6.38;;;5.50;99.90;;;;;;4941747;28;20535;-91
2021/04/05 00:04:05;;;;;;;18.42;5.78;;;5.50;99.90;;;;;;4941678;28;20120;-89
2021/04/05 00:06:28;;;;;;;21.23;7.47;;;5.50;99.90;;;;;;4941742;28;20151;-90
2021/04/05 00:08:51;;;;;;;20.73;7.03;;;5.40;99.90;;;;;;4942027;28;20108;-84
2021/04/05 00:11:14;;;;;;;24.38;6.60;;;5.40;99.90;;;;;;4943045;28;20117;-89
2021/04/05 00:13:40;;;;;;;22.33;6.70;;;5.40;99.90;;;;;;4942115;28;20120;-89
2021/04/05 00:16:03;;;;;;;23.02;7.03;;;5.40;99.90;;;;;;4941708;28;20093;-92
2021/04/05 00:18:27;;;;;;;30.02;7.97;;;5.40;99.90;;;;;;4940221;28;20097;-90
2021/04/05 00:20:53;;;;;;;18.13;5.75;;;5.30;99.90;;;;;;4941736;28;20090;-85
2021/04/05 00:23:16;;;;;;;20.25;7.75;;;5.40;99.90;;;;;;4924786;28;20089;-87
2021/04/05 00:25:39;;;;;;;23.65;6.55;;;5.40;99.90;;;;;;4918660;27;20103;-86
2021/04/05 00:28:02;;;;;;;26.75;6.28;;;;;;;;;;4939689;28;20199;-84
2021/04/05 00:30:26;;;;;;;21.85;7.53;;;5.40;99.90;;;;;;4943334;28;20095;-88
2021/04/05 00:32:50;;;;;;;24.55;6.90;;;5.30;99.90;;;;;;4941843;28;20142;-90
2021/04/05 00:35:16;;;;;;;26.92;7.72;;;5.30;99.90;;;;;;4939822;28;20094;-90
2021/04/05 00:37:48;;;;;;;27.50;6.85;;;5.30;99.90;;;;;;4938467;28;20139;-90
2021/04/05 00:40:13;;;;;;;24.52;7.25;;;5.30;99.90;;;;;;4944315;28;20098;-87
2021/04/05 00:42:36;;;;;;;21.42;7.05;;;5.30;99.90;;;;;;4941440;28;20081;-92
2021/04/05 00:44:59;;;;;;;24.67;8.40;;;;;;;;;;4942809;28;20140;-90
2021/04/05 00:47:22;;;;;;;21.38;7.55;;;5.30;99.90;;;;;;4945422;28;20498;-92
2021/04/05 00:49:45;;;;;;;17.65;6.32;;;;;;;;;;4941939;28;20090;-88
2021/04/05 00:52:07;;;;;;;22.92;7.00;;;5.30;99.90;;;;;;4945375;28;20093;-89
2021/04/05 00:54:31;;;;;;;22.83;7.75;;;5.30;99.90;;;;;;4935808;28;20428;-89
2021/04/05 00:56:54;;;;;;;29.70;7.10;;;5.30;99.90;;;;;;4944439;28;20098;-91
2021/04/05 00:59:17;;;;;;;23.70;6.57;;;5.40;99.90;;;;;;4946281;28;20089;-87
2021/04/05 01:01:39;;;;;;;19.90;7.85;;;5.40;99.90;;;;;;4947457;28;20347;-92
2021/04/05 01:04:02;;;;;;;25.17;6.82;;;5.30;99.90;;;;;;4945737;28;20544;-91
2021/04/05 01:06:31;;;;;;;19.27;6.93;;;5.40;99.90;;;;;;4946142;28;20086;-89
2021/04/05 01:08:54;;;;;;;25.27;7.32;;;5.30;99.90;;;;;;4944632;28;20516;-87
2021/04/05 01:11:20;;;;;;;23.92;7.28;;;5.30;99.90;;;;;;4946038;28;20082;-89
2021/04/05 01:13:43;;;;;;;;;;;5.30;99.90;;;;;;4946593;28;20090;-89
2021/04/05 01:16:07;;;;;;;20.58;6.10;;;5.30;99.90;;;;;;4947129;28;19973;-86
2021/04/05 01:18:30;;;;;;;26.92;6.78;;;5.30;99.90;;;;;;4945607;28;20532;-90
2021/04/05 01:20:56;;;;;;;14.50;6.03;;;5.30;99.90;;;;;;4936217;27;20143;-90
2021/04/05 01:23:22;;;;;;;29.02;8.68;;;5.30;99.90;;;;;;4950323;28;20086;-93
2021/04/05 01:25:45;;;;;;;18.23;7.72;;;5.40;99.90;;;;;;4951077;27;20096;-93
2021/04/05 01:28:08;;;;;;;20.88;7.05;;;5.40;99.90;;;;;;4948855;28;20102;-91
2021/04/05 01:30:38;;;;;;;25.67;8.70;;;5.30;99.90;;;;;;4950132;28;20094;-87
2021/04/05 01:33:04;;;;;;;23.40;6.28;;;5.30;99.90;;;;;;4948748;28;20155;-90
2021/04/05 01:35:26;;;;;;;27.13;7.00;;;5.40;99.90;;;;;;4950609;28;21934;-88
2021/04/05 01:37:49;;;;;;;22.45;7.57;;;5.40;99.90;;;;;;4938863;27;20081;-89
2021/04/05 01:40:13;;;;;;;23.55;7.82;;;5.40;99.90;;;;;;4941204;27;20113;-92
2021/04/05 01:42:36;;;;;;;21.02;6.60;;;5.40;99.90;;;;;;4948528;28;20097;-92
2021/04/05 01:44:59;;;;;;;28.23;7.68;;;5.40;99.90;;;;;;4949662;28;20081;-89
2021/04/05 01:47:21;;;;;;;20.15;6.43;;;5.40;99.90;;;;;;4950272;28;20117;-87
2021/04/05 01:49:44;;;;;;;23.17;6.80;;;5.30;99.90;;;;;;4948011;28;20082;-88
2021/04/05 01:52:13;;;;;;;17.02;6.72;;;5.30;99.90;;;;;;4950443;28;20094;-89
2021/04/05 01:54:35;;;;;;;23.00;6.53;;;5.30;99.90;;;;;;4950578;28;20097;-94
2021/04/05 01:56:59;;;;;;;25.05;7.72;;;5.30;99.90;;;;;;4948585;28;20086;-87
2021/04/05 01:59:22;;;;;;;20.50;6.65;;;5.30;99.90;;;;;;4949501;28;20622;-91
2021/04/05 02:01:44;;;;;;;18.40;6.13;;;5.30;99.90;;;;;;4950465;28;20089;-86
2021/04/05 02:04:08;;;;;;;16.13;5.82;;;5.30;99.90;;;;;;4948717;28;20163;-91
2021/04/05 02:06:33;;;;;;;24.38;7.82;;;5.40;99.90;;;;;;4948427;28;20131;-92
2021/04/05 02:08:56;;;;;;;24.00;6.85;;;5.30;99.90;;;;;;4947797;27;20190;-87
2021/04/05 02:11:23;;;;;;;19.83;7.43;;;5.40;99.90;;;;;;4937468;28;20093;-89
2021/04/05 02:13:49;;;;;;;22.88;6.63;;;5.40;99.90;;;;;;4947717;28;20086;-90
2021/04/05 02:16:14;;;;;;;25.70;7.10;;;5.30;99.90;;;;;;4941214;27;20086;-91
2021/04/05 02:18:37;;;;;;;30.38;7.40;;;5.40;99.90;;;;;;4952006;27;20746;-90
2021/04/05 02:21:00;;;;;;;19.33;7.18;;;5.40;99.90;;;;;;4948471;28;20552;-90
2021/04/05 02:23:25;;;;;;;27.45;6.65;;;5.40;99.90;;;;;;4951108;28;20090;-89
2021/04/05 02:26:07;;;;;;;17.98;5.75;;;5.40;99.90;;;;;;4949994;28;20533;-88
2021/04/05 02:28:31;;;;;;;23.42;7.10;;;5.40;99.90;;;;;;4944931;28;20170;-92
2021/04/05 02:30:56;;;;;;;21.40;6.40;;;5.40;99.90;;;;;;4947900;28;20125;-93
2021/04/05 02:33:19;;;;;;;24.10;6.03;;;5.30;99.90;;;;;;4936144;27;20105;-92
2021/04/05 02:35:41;;;;;;;18.83;7.07;;;5.30;99.90;;;;;;4945313;28;20461;-89
2021/04/05 02:38:04;;;;;;;23.60;7.20;;;5.30;99.90;;;;;;4947646;27;20090;-89
2021/04/05 02:40:27;;;;;;;20.10;7.03;;;5.30;99.90;;;;;;4947427;28;20098;-91
2021/04/05 02:42:52;;;;;;;17.73;6.72;;;5.30;99.90;;;;;;4947789;28;20100;-89
2021/04/05 02:45:18;;;;;;;22.38;7.47;;;5.30;99.90;;;;;;4943937;28;20090;-90
2021/04/05 02:47:43;;;;;;;21.10;6.80;;;;;;;;;;4938521;28;20093;-89
2021/04/05 02:50:07;;;;;;;22.80;6.50;;;5.30;99.90;;;;;;4946647;28;20096;-87
2021/04/05 02:52:29;;;;;;;23.02;6.90;;;5.40;99.90;;;;;;4944055;28;20418;-88
2021/04/05 02:54:52;;;;;;;20.23;7.75;;;5.40;99.90;;;;;;4948035;27;20118;-91
2021/04/05 02:57:15;;;;;;;30.42;8.18;;;5.40;99.90;;;;;;4946595;28;20147;-89
2021/04/05 02:59:38;;;;;;;24.20;7.65;;;5.40;99.90;;;;;;4946486;28;20081;-91
2021/04/05 03:02:01;;;;;;;19.38;6.63;;;5.40;99.90;;;;;;4945483;28;20086;-88
2021/04/05 03:04:24;;;;;;;18.35;7.25;;;;;;;;;;4945172;28;20082;-92
2021/04/05 03:06:50;;;;;;;33.28;8.15;;;5.40;99.90;;;;;;4947821;28;20136;-89
2021/04/05 03:09:12;;;;;;;;;;;5.40;99.90;;;;;;4919599;28;20100;-90
2021/04/05 03:11:37;;;;;;;17.88;7.35;;;5.40;99.90;;;;;;4945794;28;20420;-91
2021/04/05 03:14:01;;;;;;;18.67;6.90;;;5.40;99.90;;;;;;4947062;28;20094;-93
2021/04/05 03:16:25;;;;;;;24.95;8.15;;;5.40;99.90;;;;;;4929696;27;20468;-89
2021/04/05 03:18:50;;;;;;;28.05;7.57;;;5.40;99.90;;;;;;4946789;28;20094;-89
2021/04/05 03:21:14;;;;;;;23.05;8.13;;;5.40;99.90;;;;;;4945993;28;20086;-91
2021/04/05 03:23:38;;;;;;;26.88;7.80;;;5.40;99.90;;;;;;4946273;28;20085;-90
2021/04/05 03:26:00;;;;;;;22.67;7.93;;;5.40;99.90;;;;;;4947126;28;20098;-89
2021/04/05 03:28:22;;;;;;;21.17;8.38;;;5.40;99.90;;;;;;4947643;28;20508;-89
2021/04/05 03:30:49;;;;;;;25.70;8.18;;;5.40;99.90;;;;;;4945699;28;20219;-90
2021/04/05 03:33:16;;;;;;;24.90;8.70;;;7.00;99.90;;;;;;4946052;28;20081;-91
2021/04/05 03:35:43;;;;;;;17.60;7.30;;;5.40;99.90;;;;;;4935139;28;20132;-90
2021/04/05 03:38:06;;;;;;;24.58;9.13;;;5.40;99.90;;;;;;4945311;28;20440;-90
2021/04/05 03:40:29;;;;;;;20.23;8.43;;;5.40;99.90;;;;;;4944949;28;20134;-90
2021/04/05 03:42:59;;;;;;;26.83;9.30;;;5.40;99.90;;;;;;4942767;28;20495;-86
2021/04/05 03:45:25;;;;;;;28.73;8.60;;;5.40;99.90;;;;;;4945571;28;20082;-88
2021/04/05 03:47:54;;;;;;;24.90;9.05;;;5.40;99.90;;;;;;4945205;28;20120;-90
2021/04/05 03:50:21;;;;;;;26.63;9.52;;;5.40;99.90;;;;;;4946594;28;20148;-92
2021/04/05 03:52:49;;;;;;;27.08;9.80;;;5.40;99.90;;;;;;4944751;28;20469;-91
2021/04/05 03:55:13;;;;;;;26.95;10.40;;;5.40;99.90;;;;;;4946014;28;20169;-89
2021/04/05 03:57:41;;;;;;;25.67;9.18;;;5.40;99.90;;;;;;4943809;28;20528;-89
2021/04/05 04:00:08;;;;;;;21.73;8.52;;;5.40;99.90;;;;;;4941543;27;20085;-93
2021/04/05 04:02:40;;;;;;;31.20;11.15;;;5.40;99.90;;;;;;4943655;28;20090;-90
2021/04/05 04:05:11;;;;;;;33.80;10.07;;;5.50;99.90;;;;;;4942448;28;20115;-91
2021/04/05 04:07:39;;;;;;;22.45;8.77;;;;;;;;;;4944574;28;20086;-90
2021/04/05 04:10:05;;;;;;;28.08;8.77;;;5.50;99.90;;;;;;4944948;28;20089;-91
2021/04/05 04:12:32;;;;;;;27.67;11.68;;;5.50;99.90;;;;;;4945204;28;20090;-89
2021/04/05 04:14:57;;;;;;;24.83;9.90;;;5.40;99.90;;;;;;4946123;28;20090;-91
2021/04/05 04:17:22;;;;;;;25.48;9.57;;;5.40;99.90;;;;;;4935326;28;20134;-90
2021/04/05 04:19:46;;;;;;;25.92;10.85;;;5.40;99.90;;;;;;4945617;28;20094;-90
2021/04/05 04:22:09;;;;;;;24.52;9.48;;;5.40;99.90;;;;;;4943102;28;20127;-89
2021/04/05 04:24:33;;;;;;;24.73;10.57;;;5.30;99.90;;;;;;4945351;28;20089;-87
2021/04/05 04:26:56;;;;;;;28.58;10.48;;;5.30;99.90;;;;;;4935958;28;20090;-89
2021/04/05 04:29:22;;;;;;;24.95;8.63;;;5.30;99.90;;;;;;4944536;28;20088;-88
2021/04/05 04:31:45;;;;;;;41.38;11.48;;;5.30;99.90;;;;;;4943711;28;20501;-88
2021/04/05 04:34:09;;;;;;;26.55;10.65;;;5.40;99.90;;;;;;4945447;28;20097;-90
2021/04/05 04:36:31;;;;;;;26.80;10.48;;;5.40;99.90;;;;;;4944474;28;20101;-89
2021/04/05 04:38:55;;;;;;;30.30;11.50;;;5.40;99.90;;;;;;4944510;28;20078;-89
2021/04/05 04:41:21;;;;;;;29.75;10.93;;;5.40;99.90;;;;;;4944542;28;20105;-89
2021/04/05 04:43:43;;;;;;;26.80;10.60;;;5.40;99.90;;;;;;4943824;28;20090;-90
2021/04/05 04:46:07;;;;;;;23.98;10.27;;;5.40;99.90;;;;;;4933648;28;20595;-90
2021/04/05 04:48:30;;;;;;;30.45;10.70;;;5.40;99.90;;;;;;4943824;28;20444;-86
2021/04/05 04:50:52;;;;;;;25.23;10.10;;;5.40;99.90;;;;;;4941946;28;20078;-90
2021/04/05 04:53:15;;;;;;;22.17;9.90;;;5.40;99.90;;;;;;4944894;28;20563;-89
2021/04/05 04:55:38;;;;;;;26.60;9.27;;;6.40;99.90;;;;;;4937590;27;20092;-86
2021/04/05 04:58:04;;;;;;;25.20;10.65;;;5.40;99.90;;;;;;4945947;27;20090;-89
2021/04/05 05:00:30;;;;;;;30.73;11.93;;;5.40;99.90;;;;;;4948856;28;20116;-90
2021/04/05 05:02:55;;;;;;;32.22;12.60;;;5.30;99.90;;;;;;4932893;28;20487;-86
2021/04/05 05:05:21;;;;;;;34.97;13.10;;;5.30;99.90;;;;;;4942945;28;20082;-87
2021/04/05 05:07:45;;;;;;;42.22;13.25;;;5.30;99.90;;;;;;4947418;28;20090;-89
2021/04/05 05:10:10;;;;;;;31.38;11.95;;;5.20;99.90;;;;;;4946917;27;20090;-90
2021/04/05 05:12:43;;;;;;;;;;;;;;;;;;;;;
2021/04/05 05:15:09;;;;;;;34.17;11.65;;;5.20;99.90;;;;;;4944881;28;20356;-89
2021/04/05 05:17:32;;;;;;;34.35;12.88;;;5.20;99.90;;;;;;4947786;28;20085;-87
2021/04/05 05:19:56;;;;;;;33.65;12.45;;;;;;;;;;4946519;27;20086;-89
2021/04/05 05:22:21;;;;;;;34.63;13.20;;;5.10;99.90;;;;;;4946290;28;20153;-87
2021/04/05 05:24:47;;;;;;;42.13;13.38;;;5.10;99.90;;;;;;4947810;27;20119;-88
2021/04/05 05:27:10;;;;;;;32.17;13.38;;;5.10;99.90;;;;;;4928847;27;20567;-86
2021/04/05 05:29:33;;;;;;;42.22;13.15;;;5.10;99.90;;;;;;4939854;27;20278;-85
2021/04/05 05:31:56;;;;;;;31.55;12.55;;;5.10;99.90;;;;;;4947064;28;20089;-88
2021/04/05 05:34:21;;;;;;;35.95;12.95;;;5.10;99.90;;;;;;4947054;28;20107;-87
2021/04/05 05:36:46;;;;;;;31.20;13.18;;;5.00;99.90;;;;;;4948504;28;20520;-88
2021/04/05 05:39:09;;;;;;;31.30;13.15;;;5.00;99.90;;;;;;4947834;28;20101;-88
2021/04/05 05:41:52;;;;;;;34.88;13.73;;;5.00;99.90;;;;;;4946084;28;20093;-86
2021/04/05 05:44:23;;;;;;;31.05;13.23;;;5.00;99.90;;;;;;4945872;28;20142;-87
2021/04/05 05:46:51;;;;;;;28.50;11.35;;;5.00;99.90;;;;;;4947506;28;20520;-89
2021/04/05 05:49:33;;;;;;;34.45;12.38;;;5.00;99.90;;;;;;4948800;28;20086;-89
2021/04/05 05:52:09;;;;;;;34.58;14.05;;;5.00;99.90;;;;;;4936079;27;20082;-86
2021/04/05 05:54:47;;;;;;;32.90;13.73;;;5.00;99.90;;;;;;4945260;27;20151;-89
2021/04/05 05:57:16;;;;;;;15.50;6.80;;;4.60;99.90;;;;;;4946548;28;20101;-88
2021/04/05 05:59:46;;;;;;;6.68;2.60;;;2.50;99.90;;;;;;4947203;28;20090;-88
2021/04/05 06:02:35;;;;;;;6.30;2.47;;;1.80;99.90;;;;;;4929697;28;20146;-88
2021/04/05 06:05:12;;;;;;;5.20;2.25;;;1.80;99.90;;;;;;4943525;28;20079;-87
2021/04/05 06:07:49;;;;;;;5.40;2.10;;;1.70;99.90;;;;;;4947313;28;20085;-86
2021/04/05 06:10:20;;;;;;;3.53;1.63;;;1.70;99.90;;;;;;4944634;28;20102;-87
2021/04/05 06:12:51;;;;;;;3.28;1.30;;;1.80;99.90;;;;;;4945044;28;20082;-86
2021/04/05 06:15:18;;;;;;;4.82;1.77;;;1.90;99.90;;;;;;4944712;28;20093;-86
2021/04/05 06:17:56;;;;;;;3.10;1.52;;;1.90;99.90;;;;;;4943946;28;20092;-87
2021/04/05 06:20:21;;;;;;;4.68;1.88;;;2.00;99.90;;;;;;4944242;27;20089;-87
2021/04/05 06:23:06;;;;;;;4.65;1.52;;;2.00;99.90;;;;;;4943769;27;20139;-87
2021/04/05 06:25:39;;;;;;;5.65;1.20;;;2.00;99.90;;;;;;4945402;27;20436;-88
2021/04/05 06:28:06;;;;;;;2.08;1.08;;;;;;;;;;4944298;28;20151;-91
2021/04/05 06:30:41;;;;;;;3.63;1.02;;;2.10;99.90;;;;;;4947629;27;20105;-88
2021/04/05 06:33:13;;;;;;;2.13;1.02;;;2.10;99.90;;;;;;4942692;28;20078;-86
2021/04/05 06:36:01;;;;;;;2.03;0.82;;;2.10;99.90;;;;;;4943546;28;20097;-88
2021/04/05 06:38:27;;;;;;;0.93;0.40;;;2.10;99.90;;;;;;4946640;28;20118;-90
2021/04/05 06:40:53;;;;;;;0.85;0.50;;;2.10;99.90;;;;;;4946055;28;20164;-91
2021/04/05 06:43:26;;;;;;;;;;;2.00;99.90;;;;;;4948524;28;20090;-88
2021/04/05 06:45:56;;;;;;;0.57;0.40;;;2.20;99.90;;;;;;4944769;28;19969;-88
2021/04/05 06:48:47;;;;;;;1.52;0.55;;;2.20;99.90;;;;;;4945588;28;20178;-86
2021/04/05 06:51:38;;;;;;;0.85;0.50;;;2.30;99.90;;;;;;4944020;28;20093;-85
2021/04/05 06:54:42;;;;;;;1.75;0.45;;;2.40;99.90;;;;;;4945064;28;20086;-89
2021/04/05 06:57:12;;;;;;;1.40;0.20;;;2.40;99.90;;;;;;4943133;27;20122;-86
2021/04/05 07:00:00;;;;;;;0.85;0.40;;;2.50;99.90;;;;;;4944331;28;20308;-88
2021/04/05 07:02:48;;;;;;;5.38;0.60;;;2.60;99.90;;;;;;4945466;28;20151;-88
2021/04/05 07:05:25;;;;;;;1.33;0.68;;;2.70;99.90;;;;;;4945176;27;20150;-88
2021/04/05 07:07:56;;;;;;;2.63;0.50;;;2.80;99.90;;;;;;4937074;28;20085;-89
2021/04/05 07:10:26;;;;;;;1.88;0.45;;;2.90;99.90;;;;;;4947386;28;20191;-90
2021/04/05 07:13:03;;;;;;;0.50;0.32;;;3.00;99.90;;;;;;4945170;28;20086;-89
2021/04/05 07:15:34;;;;;;;1.73;0.50;;;3.10;99.90;;;;;;4944233;28;20090;-89
2021/04/05 07:18:11;;;;;;;1.33;0.50;;;3.20;99.90;;;;;;4944627;28;20082;-89
2021/04/05 07:20:42;;;;;;;1.13;0.60;;;3.20;99.90;;;;;;4945346;28;20086;-89
2021/04/05 07:23:23;;;;;;;1.27;0.50;;;3.20;99.90;;;;;;4942660;28;20097;-90
2021/04/05 07:26:00;;;;;;;0.88;0.50;;;3.30;99.90;;;;;;4948967;27;20109;-88
2021/04/05 07:28:38;;;;;;;4.90;1.08;;;3.30;99.90;;;;;;4944371;28;20496;-91
2021/04/05 07:31:15;;;;;;;2.50;0.93;;;3.30;99.90;;;;;;4924432;28;20078;-87
2021/04/05 07:33:39;;;;;;;0.73;0.45;;;3.30;99.90;;;;;;4932173;28;20074;-88
2021/04/05 07:36:10;;;;;;;1.60;0.55;;;3.20;99.90;;;;;;4935137;28;20108;-86
2021/04/05 07:38:46;;;;;;;1.00;0.60;;;3.20;99.90;;;;;;4935802;28;20094;-88
2021/04/05 07:41:20;;;;;;;1.58;0.70;;;3.30;99.90;;;;;;4924832;28;20445;-89
2021/04/05 07:43:59;;;;;;;1.73;0.95;;;3.40;99.90;;;;;;4926342;28;20124;-91
2021/04/05 07:46:30;;;;;;;1.75;0.85;;;3.50;99.90;;;;;;4926313;28;20191;-92
2021/04/05 07:49:07;;;;;;;3.08;0.80;;;3.60;99.90;;;;;;4927596;28;20101;-92
2021/04/05 07:51:41;;;;;;;2.97;0.50;;;3.80;99.90;;;;;;4926346;28;20100;-90
2021/04/05 07:54:06;;;;;;;2.17;0.60;;;4.20;99.90;;;;;;4927731;28;20106;-88
2021/04/05 07:56:33;;;;;;;2.30;0.60;;;4.50;99.90;;;;;;4928658;28;20449;-87
2021/04/05 07:59:10;;;;;;;3.92;0.68;;;4.80;99.90;;;;;;4925832;28;20097;-92
2021/04/05 08:01:44;;;;;;;5.20;0.60;;;5.00;99.90;;;;;;4924011;28;20097;-90
2021/04/05 08:04:15;;;;;;;3.05;0.63;;;5.20;99.90;;;;;;4926614;28;20086;-88
2021/04/05 08:06:50;;;;;;;4.07;0.77;;;5.10;99.90;;;;;;4926555;28;20145;-86
2021/04/05 08:09:16;;;;;;;6.35;0.52;;;5.00;99.90;;;;;;4927017;28;20086;-91
2021/04/05 08:12:06;;;;;;;4.32;0.75;;;5.00;99.90;;;;;;4943107;28;20106;-88
2021/04/05 08:14:45;;;;;;;12.30;1.05;;;5.00;99.90;;;;;;4943153;28;20097;-93
2021/04/05 08:17:21;;;;;;;2.30;0.55;;;4.70;99.90;;;;;;4934532;28;20090;-93
2021/04/05 08:19:56;;;;;;;5.07;0.70;;;4.50;99.90;;;;;;4946070;28;20168;-90
2021/04/05 08:22:29;;;;;;;1.60;0.43;;;3.10;99.90;;;;;;4944127;28;20077;-85
2021/04/05 08:25:02;;;;;;;4.45;0.20;;;2.40;99.90;;;;;;4943309;28;20094;-89
2021/04/05 08:27:33;;;;;;;2.05;0.10;;;-1.50;99.90;;;;;;4941958;28;20121;-89
2021/04/05 08:30:01;;;;;;;7.43;0.63;;;1.90;99.90;;;;;;4944280;28;20143;-90
2021/04/05 08:32:37;;;;;;;5.97;0.75;;;2.00;99.90;;;;;;4949086;28;20091;-86
2021/04/05 08:35:28;;;;;;;2.65;0.38;;;2.20;99.90;;;;;;4945988;28;20082;-87
2021/04/05 08:38:04;;;;;;;3.33;0.57;;;2.90;99.90;;;;;;4947464;28;20092;-90
2021/04/05 08:40:30;;;;;;;4.13;0.30;;;3.40;99.90;;;;;;4948899;28;20090;-85
2021/04/05 08:43:06;;;;;;;8.73;0.68;;;3.40;99.90;;;;;;4947899;28;20090;-87
2021/04/05 08:45:33;;;;;;;;;;;3.50;99.90;;;;;;4946436;28;20125;-87
2021/04/05 08:47:58;;;;;;;8.60;0.60;;;;;;;;;;4948926;28;19969;-88
2021/04/05 08:50:25;;;;;;;1.70;0.60;;;4.50;99.90;;;;;;4947871;28;20090;-88
2021/04/05 08:52:50;;;;;;;4.15;0.80;;;4.70;99.90;;;;;;4949494;28;20081;-93
2021/04/05 08:55:15;;;;;;;1.63;0.40;;;5.40;99.90;;;;;;4948077;28;20082;-91
2021/04/05 08:57:44;;;;;;;7.13;0.75;;;5.70;99.90;;;;;;4948072;28;20097;-91
2021/04/05 09:00:11;;;;;;;8.38;0.55;;;6.00;99.90;;;;;;4948413;28;20085;-92
2021/04/05 09:02:38;;;;;;;4.03;0.52;;;5.80;99.90;;;;;;4894866;27;20086;-91
2021/04/05 09:05:10;;;;;;;5.55;1.02;;;5.60;99.90;;;;;;4893230;27;20464;-91
2021/04/05 09:08:28;;;;;;;3.70;0.25;;;6.10;99.90;;;;;;4879304;27;20545;-89
2021/04/05 09:11:02;;;;;;;9.90;0.90;;;6.20;99.90;;;;;;4912504;27;20086;-90
2021/04/05 09:17:04;;;;;;;7.00;1.02;;;4.60;99.90;;;;;;4889442;28;20112;-89
2021/04/05 09:20:23;;;;;;;2.78;0.52;;;3.60;99.90;;;;;;4891898;27;20558;-89
2021/04/05 09:26:38;;;;;;;3.95;0.50;;;3.20;99.90;;;;;;4891086;27;20499;-91
2021/04/05 09:29:30;;;;;;;1.52;0.25;;;2.50;99.90;;;;;;4862652;28;20144;-87
2021/04/05 09:32:33;;;;;;;0.32;0.20;;;2.00;99.90;;;;;;4885183;28;20091;-89
2021/04/05 09:35:41;;;;;;;2.50;0.20;;;1.30;99.90;;;;;;4885132;27;20086;-90
2021/04/05 09:38:51;;;;;;;1.05;0.20;;;1.40;99.90;;;;;;4901282;27;20094;-88
2021/04/05 09:41:55;;;;;;;1.60;0.20;;;2.00;99.90;;;;;;4871719;27;21002;-89
2021/04/05 09:44:44;;;;;;;2.42;1.15;;;2.40;99.90;;;;;;4874326;27;20114;-87
2021/04/05 09:48:04;;;;;;;1.02;0.03;;;2.50;99.90;;;;;;4879801;27;20173;-87
2021/04/05 09:54:12;;;;;;;1.98;0.20;;;2.00;99.90;;;;;;4895243;27;20546;-90
2021/04/05 09:56:54;;;;;;;2.45;0.47;;;2.10;99.90;;;;;;4876343;27;20113;-89
2021/04/05 09:59:50;;;;;;;1.75;0.82;;;1.90;99.90;;;;;;4898210;27;20449;-89
2021/04/05 10:05:27;;;;;;;1.25;0.30;;;2.20;99.90;;;;;;4883339;27;20087;-92
2021/04/05 10:08:04;;;;;;;2.03;0.47;;;2.20;99.90;;;;;;4883808;27;20128;-85
2021/04/05 10:10:28;;;;;;;3.65;0.65;;;2.00;99.90;;;;;;4926583;27;20770;-87
2021/04/05 10:12:58;;;;;;;7.72;0.82;;;;;;;;;;4905116;27;20091;-86
2021/04/05 10:15:25;;;;;;;2.33;0.82;;;2.10;99.90;;;;;;4893576;27;20099;-88
2021/04/05 10:17:52;;;;;;;1.67;0.40;;;1.90;99.90;;;;;;4902560;28;20117;-90
2021/04/05 10:20:16;;;;;;;10.30;0.65;;;1.60;99.90;;;;;;4917748;27;20099;-89
2021/04/05 10:22:47;;;;;;;2.22;0.77;;;;;;;;;;4913736;27;20541;-88
2021/04/05 10:25:15;;;;;;;1.23;0.60;;;1.80;99.90;;;;;;4926218;27;20461;-89
2021/04/05 10:27:42;;;;;;;1.67;0.43;;;2.00;99.90;;;;;;4920430;28;20532;-87
2021/04/05 10:30:15;;;;;;;0.40;0.13;;;2.10;99.90;;;;;;4923430;28;20085;-89
2021/04/05 10:32:41;;;;;;;2.65;0.60;;;2.10;99.90;;;;;;4946914;28;20170;-90
2021/04/05 10:35:05;;;;;;;4.72;0.63;;;2.30;99.90;;;;;;4940337;28;20106;-91
2021/04/05 10:37:32;;;;;;;7.53;1.42;;;2.40;99.90;;;;;;4946939;28;20441;-90
2021/04/05 10:39:55;;;;;;;1.63;0.68;;;;;;;;;;4938812;28;20090;-89
2021/04/05 10:42:24;;;;;;;2.25;0.68;;;2.50;99.90;;;;;;4943476;28;20166;-85
2021/04/05 10:44:49;;;;;;;3.08;0.75;;;2.70;99.90;;;;;;4946986;28;20176;-91
2021/04/05 10:47:23;;;;;;;1.13;0.40;;;2.70;99.90;;;;;;4946881;28;20155;-85
2021/04/05 10:49:49;;;;;;;1.20;0.30;;;2.50;99.90;;;;;;4943706;28;20483;-90
2021/04/05 10:52:17;;;;;;;6.78;0.47;;;2.70;99.90;;;;;;4944740;28;20136;-90
2021/04/05 10:54:44;;;;;;;0.52;0.28;;;2.90;99.90;;;;;;4945891;28;20081;-91
2021/04/05 10:57:10;;;;;;;1.63;0.22;;;2.70;99.90;;;;;;4936545;27;20173;-89
2021/04/05 10:59:43;;;;;;;2.28;0.55;;;3.00;99.90;;;;;;4945576;28;20166;-88
2021/04/05 11:02:12;;;;;;;4.63;0.40;;;3.80;99.90;;;;;;4946815;28;20540;-93
2021/04/05 11:04:37;;;;;;;6.65;0.38;;;3.90;99.90;;;;;;4934215;28;20101;-87
2021/04/05 11:07:02;;;;;;;1.13;0.30;;;3.70;99.90;;;;;;4945477;28;20081;-88
2021/04/05 11:09:27;;;;;;;7.25;0.30;;;4.00;99.90;;;;;;4946504;28;20098;-89
2021/04/05 11:11:53;;;;;;;1.13;0.35;;;4.60;99.90;;;;;;4947565;28;20078;-89
2021/04/05 11:14:18;;;;;;;2.20;0.40;;;4.90;99.90;;;;;;4948037;28;20090;-89
2021/04/05 11:16:49;;;;;;;3.65;0.50;;;5.20;99.90;;;;;;4947181;28;20090;-92
2021/04/05 11:19:13;;;;;;;4.63;0.40;;;4.70;99.90;;;;;;4945440;28;20090;-89
2021/04/05 11:21:43;;;;;;;1.92;0.30;;;4.50;99.90;;;;;;4947584;28;20108;-87
2021/04/05 11:24:10;;;;;;;4.65;0.32;;;4.40;99.90;;;;;;4946112;28;20116;-89
2021/04/05 11:26:35;;;;;;;1.45;0.20;;;4.70;99.90;;;;;;4944862;27;20165;-90
2021/04/05 11:29:02;;;;;;;4.35;0.20;;;5.00;99.90;;;;;;4943426;28;20101;-91
2021/04/05 11:31:26;;;;;;;4.70;0.63;;;4.90;99.90;;;;;;4945742;28;20082;-90
2021/04/05 11:33:52;;;;;;;5.43;0.47;;;5.20;99.90;;;;;;4949419;28;20094;-89
2021/04/05 11:36:16;;;;;;;4.50;0.43;;;5.50;99.90;;;;;;4937862;28;20162;-92
2021/04/05 11:38:46;;;;;;;4.22;0.40;;;5.80;99.90;;;;;;4943844;28;20082;-87
2021/04/05 11:41:11;;;;;;;3.70;0.50;;;5.90;99.90;;;;;;4943741;27;20089;-90
2021/04/05 11:43:38;;;;;;;0.88;0.32;;;5.50;99.90;;;;;;4943244;28;20078;-90
2021/04/05 11:46:07;;;;;;;2.05;0.55;;;5.80;99.90;;;;;;4951831;28;20090;-90
2021/04/05 11:48:29;;;;;;;2.70;0.47;;;5.80;99.90;;;;;;4957149;28;20090;-88
2021/04/05 11:50:52;;;;;;;4.07;0.43;;;6.00;99.90;;;;;;4954048;28;20093;-91
2021/04/05 11:53:23;;;;;;;1.83;0.35;;;5.30;99.90;;;;;;4947138;28;20098;-90
2021/04/05 11:55:47;;;;;;;2.75;0.40;;;5.60;99.90;;;;;;4946479;27;20078;-88
2021/04/05 11:58:14;;;;;;;2.55;0.38;;;6.20;99.90;;;;;;4944292;28;20081;-93
2021/04/05 12:00:39;;;;;;;9.38;0.80;;;5.90;99.90;;;;;;4945641;28;20147;-93
2021/04/05 12:03:21;;;;;;;3.38;0.77;;;5.10;99.90;;;;;;4945125;28;20082;-87
2021/04/05 12:05:48;;;;;;;5.72;0.73;;;6.90;99.90;;;;;;4942660;28;20544;-87
2021/04/05 12:08:13;;;;;;;4.22;0.68;;;;;;;;;;4944852;28;20548;-87
2021/04/05 12:10:39;;;;;;;3.75;0.73;;;4.30;99.90;;;;;;4943604;28;20081;-85
2021/04/05 12:13:10;;;;;;;2.83;0.52;;;4.30;99.90;;;;;;4946103;28;20105;-88
2021/04/05 12:15:36;;;;;;;3.03;0.90;;;3.90;99.90;;;;;;4934596;28;20078;-94
2021/04/05 12:18:01;;;;;;;6.43;0.80;;;4.70;99.90;;;;;;4923420;28;20451;-92
2021/04/05 12:20:25;;;;;;;7.53;0.70;;;4.70;99.90;;;;;;4936810;27;20117;-90
2021/04/05 12:22:52;;;;;;;5.82;0.80;;;4.80;99.90;;;;;;4944999;28;20093;-87
2021/04/05 12:25:16;;;;;;;5.07;0.90;;;5.30;99.90;;;;;;4942702;28;20131;-88
2021/04/05 12:27:39;;;;;;;2.08;0.63;;;5.30;99.90;;;;;;4946870;28;20097;-86
2021/04/05 12:30:05;;;;;;;4.63;0.77;;;5.20;99.90;;;;;;4945249;28;20104;-90
2021/04/05 12:32:30;;;;;;;5.63;0.85;;;5.30;99.90;;;;;;4945079;28;20098;-88
2021/04/05 12:34:56;;;;;;;6.97;0.93;;;5.10;99.90;;;;;;4944959;28;20104;-91
2021/04/05 12:37:22;;;;;;;4.25;0.60;;;5.10;99.90;;;;;;4944717;28;20078;-90
2021/04/05 12:39:49;;;;;;;8.15;0.70;;;5.20;99.90;;;;;;4933920;27;20090;-87
2021/04/05 12:42:14;;;;;;;3.92;0.50;;;5.20;99.90;;;;;;4942785;28;20176;-89
2021/04/05 12:44:38;;;;;;;3.00;0.30;;;4.90;99.90;;;;;;4945520;28;20086;-91
2021/04/05 12:47:06;;;;;;;6.13;1.23;;;5.30;99.90;;;;;;4942910;28;20078;-88
2021/04/05 12:49:34;;;;;;;2.47;0.40;;;6.00;99.90;;;;;;4944929;28;20122;-89
2021/04/05 12:52:00;;;;;;;5.07;0.90;;;5.80;99.90;;;;;;4942723;28;20135;-88
2021/04/05 12:54:26;;;;;;;;;;;5.70;99.90;;;;;;4946900;28;20095;-90
2021/04/05 12:56:58;;;;;;;2.47;0.52;;;5.40;99.90;;;;;;4947033;28;19962;-89
2021/04/05 12:59:25;;;;;;;2.90;0.52;;;5.30;99.90;;;;;;4945318;28;20085;-89
2021/04/05 13:01:51;;;;;;;0.88;0.22;;;5.20;99.90;;;;;;4935257;28;20078;-90
2021/04/05 13:04:20;;;;;;;4.40;1.25;;;5.60;99.90;;;;;;4943120;27;20089;-91
2021/04/05 13:06:50;;;;;;;4.38;0.50;;;5.70;99.90;;;;;;4945034;28;20497;-90
2021/04/05 13:09:18;;;;;;;0.57;0.22;;;5.60;99.90;;;;;;4936221;28;20437;-94
2021/04/05 13:11:45;;;;;;;1.42;0.55;;;5.60;99.90;;;;;;4945334;28;20093;-88
2021/04/05 13:14:11;;;;;;;3.88;0.52;;;5.40;99.90;;;;;;4944272;28;20078;-89
2021/04/05 13:16:40;;;;;;;5.15;1.00;;;5.90;99.90;;;;;;4946837;27;20085;-89
2021/04/05 13:19:09;;;;;;;2.25;0.60;;;5.00;99.90;;;;;;4948087;28;20448;-91
2021/04/05 13:21:38;;;;;;;4.80;0.55;;;5.00;99.90;;;;;;4947523;28;20077;-88